Time;durP1;ratioP1;P1;durP2;ratioP2;P2;SDS_P1;SDS_P2;PMS_P1;PMS_P2;Temp;Humidity;BMP_temperature;BMP_pressure;BME280_temperature;BME280_humidity;BME280_pressure;Samples;Min_cycle;Max_cycle;Signal;HPM_P1;HPM_P2
2022/01/18 00:01:16;;;;;;;22.57;10.53;;;4.40;99.90;;;;;;5092158;28;20040;-76
2022/01/18 00:03:42;;;;;;;27.87;12.20;;;4.40;99.90;;;;;;5096011;28;20024;-77
2022/01/18 00:06:08;;;;;;;25.53;11.20;;;4.40;99.90;;;;;;5113822;28;20036;-78
2022/01/18 00:08:34;;;;;;;26.20;10.87;;;4.40;99.90;;;;;;5096070;28;20045;-78
2022/01/18 00:11:00;;;;;;;26.20;11.67;;;4.40;99.90;;;;;;5094992;28;20028;-78
2022/01/18 00:18:35;;;;;;;28.40;11.87;;;4.40;99.90;;;;;;5114435;28;20051;-78
2022/01/18 00:23:37;;;;;;;29.40;10.98;;;4.40;99.90;;;;;;5113833;28;20052;-78
2022/01/18 00:26:07;;;;;;;26.17;10.70;;;4.40;99.90;;;;;;5075361;28;20036;-77
2022/01/18 00:28:33;;;;;;;25.27;11.83;;;4.40;99.90;;;;;;5087625;28;20103;-78
2022/01/18 00:36:27;;;;;;;27.58;12.05;;;4.40;99.90;;;;;;5113840;28;20035;-78
2022/01/18 00:38:54;;;;;;;23.63;11.13;;;4.40;99.90;;;;;;5113711;28;20083;-78
2022/01/18 00:41:22;;;;;;;31.47;13.03;;;4.40;99.90;;;;;;5096032;28;20507;-77
2022/01/18 00:43:48;;;;;;;27.43;12.40;;;4.40;99.90;;;;;;5113521;28;20023;-77
2022/01/18 00:46:15;;;;;;;31.73;12.03;;;4.40;99.90;;;;;;5094590;28;20494;-78
2022/01/18 00:48:42;;;;;;;24.10;11.53;;;4.40;99.90;;;;;;5113514;28;20035;-78
2022/01/18 00:51:11;;;;;;;27.47;12.27;;;4.40;99.90;;;;;;5094819;28;20027;-77
2022/01/18 00:53:38;;;;;;;27.60;11.43;;;4.40;99.90;;;;;;5113435;28;20047;-77
2022/01/18 00:56:18;;;;;;;28.63;11.77;;;4.40;99.90;;;;;;5093271;28;20027;-77
2022/01/18 00:58:46;;;;;;;29.20;12.47;;;4.40;99.90;;;;;;5096308;28;20024;-77
2022/01/18 01:01:13;;;;;;;25.57;11.50;;;4.40;99.90;;;;;;5096919;28;20107;-78
2022/01/18 01:03:39;;;;;;;31.47;12.47;;;4.50;99.90;;;;;;5095868;28;20458;-78
2022/01/18 01:06:06;;;;;;;30.60;11.30;;;4.50;99.90;;;;;;5094923;28;20135;-78
2022/01/18 01:08:34;;;;;;;27.17;11.23;;;4.50;99.90;;;;;;5095152;28;20031;-77
2022/01/18 01:11:00;;;;;;;26.13;11.83;;;4.50;99.90;;;;;;5094314;28;20430;-78
2022/01/18 01:13:27;;;;;;;27.13;12.30;;;4.50;99.90;;;;;;5095151;28;20035;-77
2022/01/18 01:34:44;;;;;;;26.93;11.70;;;4.60;99.90;;;;;;5116303;28;20032;-78
2022/01/18 01:44:51;;;;;;;23.63;10.80;;;4.60;99.90;;;;;;5116692;28;20028;-77
2022/01/18 01:47:20;;;;;;;27.07;11.97;;;4.60;99.90;;;;;;5098552;28;20030;-78
2022/01/18 01:49:49;;;;;;;25.00;11.03;;;4.60;99.90;;;;;;5099132;28;20492;-78
2022/01/18 01:52:16;;;;;;;24.47;11.10;;;4.60;99.90;;;;;;5097836;28;20119;-78
2022/01/18 01:54:42;;;;;;;26.57;11.23;;;4.60;99.90;;;;;;5116435;28;20023;-77
2022/01/18 01:57:08;;;;;;;26.93;12.00;;;4.60;99.90;;;;;;5097932;28;20035;-78
2022/01/18 01:59:35;;;;;;;28.10;12.73;;;4.60;99.90;;;;;;5098787;28;20410;-78
2022/01/18 02:02:01;;;;;;;27.03;11.80;;;4.60;99.90;;;;;;5092600;28;20391;-77
2022/01/18 02:04:27;;;;;;;23.40;11.00;;;4.60;99.90;;;;;;5095299;28;20405;-78
2022/01/18 02:06:53;;;;;;;30.20;12.47;;;4.60;99.90;;;;;;5113279;28;20024;-78
2022/01/18 02:09:18;;;;;;;26.10;12.07;;;4.60;99.90;;;;;;5098156;28;20024;-79
2022/01/18 02:11:46;;;;;;;25.97;11.87;;;4.60;99.90;;;;;;5098480;28;20039;-80
2022/01/18 02:14:16;;;;;;;26.63;12.03;;;4.60;99.90;;;;;;5097391;28;20176;-78
2022/01/18 02:22:12;;;;;;;30.70;12.40;;;4.60;99.90;;;;;;5115914;28;20115;-78
2022/01/18 02:24:37;;;;;;;25.93;11.23;;;4.60;99.90;;;;;;5115676;28;20130;-79
2022/01/18 02:27:03;;;;;;;23.33;10.87;;;4.70;99.90;;;;;;5096380;28;20084;-78
2022/01/18 02:29:29;;;;;;;27.00;11.33;;;4.70;99.90;;;;;;5097440;28;20118;-78
2022/01/18 02:31:56;;;;;;;23.50;11.13;;;4.70;99.90;;;;;;5114192;28;20098;-77
2022/01/18 02:34:23;;;;;;;24.60;11.13;;;4.70;99.90;;;;;;5096828;28;20036;-78
2022/01/18 02:36:50;;;;;;;26.60;11.90;;;4.70;99.90;;;;;;5097274;28;20102;-78
2022/01/18 02:39:26;;;;;;;25.87;11.43;;;4.70;99.90;;;;;;5096967;28;20028;-80
2022/01/18 02:42:06;;;;;;;25.17;11.33;;;4.80;99.90;;;;;;5115245;28;20468;-79
2022/01/18 02:44:33;;;;;;;24.40;11.13;;;4.80;99.90;;;;;;5115178;28;20065;-79
2022/01/18 02:47:00;;;;;;;27.17;12.33;;;4.80;99.90;;;;;;5112744;28;20035;-79
2022/01/18 02:49:27;;;;;;;25.57;10.77;;;4.80;99.90;;;;;;5096428;28;20487;-79
2022/01/18 02:51:54;;;;;;;21.70;10.13;;;4.80;99.90;;;;;;5114524;28;20121;-78
2022/01/18 02:54:19;;;;;;;25.67;11.47;;;4.70;99.90;;;;;;5096305;28;20487;-78
2022/01/18 02:56:55;;;;;;;22.83;10.83;;;4.80;99.90;;;;;;5093874;28;20027;-79
2022/01/18 03:04:46;;;;;;;24.20;11.17;;;4.90;99.90;;;;;;5109098;28;20042;-79
2022/01/18 03:07:12;;;;;;;22.57;10.47;;;4.90;99.90;;;;;;5094321;28;20043;-79
2022/01/18 03:09:38;;;;;;;24.57;11.10;;;4.90;99.90;;;;;;5110636;28;20028;-79
2022/01/18 03:12:06;;;;;;;23.23;11.50;;;4.80;99.90;;;;;;5094005;28;20020;-79
2022/01/18 03:14:33;;;;;;;22.00;11.17;;;4.80;99.90;;;;;;5076813;28;20106;-79
2022/01/18 03:16:58;;;;;;;24.73;11.33;;;4.70;99.90;;;;;;5090126;28;20019;-80
2022/01/18 03:19:24;;;;;;;22.43;10.20;;;4.70;99.90;;;;;;5096435;28;20032;-79
2022/01/18 03:21:51;;;;;;;24.10;11.00;;;4.80;99.90;;;;;;5095983;28;20034;-78
2022/01/18 03:24:32;;;;;;;24.83;11.60;;;4.80;99.90;;;;;;5092233;28;20127;-78
2022/01/18 03:29:42;;;;;;;29.30;10.43;;;4.90;99.90;;;;;;5094295;28;20054;-78
2022/01/18 03:32:08;;;;;;;22.50;10.50;;;4.90;99.90;;;;;;5092666;28;20457;-80
2022/01/18 03:34:34;;;;;;;22.70;11.20;;;4.90;99.90;;;;;;5093110;28;20068;-81
2022/01/18 03:37:02;;;;;;;25.17;11.43;;;4.90;99.90;;;;;;5092673;28;20032;-80
2022/01/18 03:39:27;;;;;;;25.37;10.80;;;4.90;99.90;;;;;;5093238;28;20028;-77
2022/01/18 03:41:55;;;;;;;24.07;10.90;;;4.90;99.90;;;;;;5092448;28;20028;-82
2022/01/18 03:44:26;;;;;;;25.83;11.20;;;4.90;99.90;;;;;;5093296;28;20060;-79
2022/01/18 03:46:53;;;;;;;27.47;11.60;;;4.90;99.90;;;;;;5092414;28;20020;-79
2022/01/18 03:49:22;;;;;;;26.10;11.37;;;4.90;99.90;;;;;;5092723;28;20024;-77
2022/01/18 03:51:48;;;;;;;25.07;11.17;;;5.00;99.90;;;;;;5091924;28;20024;-79
2022/01/18 03:54:20;;;;;;;26.00;10.50;;;5.00;99.90;;;;;;5091652;28;20024;-78
2022/01/18 03:56:46;;;;;;;;;;;5.00;99.90;;;;;;5089110;28;20020;-79
2022/01/18 03:59:11;;;;;;;22.23;9.70;;;5.00;99.90;;;;;;5090453;28;20057;-79
2022/01/18 04:01:37;;;;;;;26.87;11.10;;;5.00;99.90;;;;;;5091885;28;20024;-80
2022/01/18 04:04:03;;;;;;;24.00;10.40;;;5.00;99.90;;;;;;5090831;28;20024;-79
2022/01/18 04:06:28;;;;;;;24.90;11.17;;;4.90;99.90;;;;;;5092433;28;20032;-80
2022/01/18 04:08:54;;;;;;;26.97;10.93;;;5.00;99.90;;;;;;5092167;28;20036;-78
2022/01/18 04:11:20;;;;;;;26.83;11.40;;;4.90;99.90;;;;;;5092149;28;20035;-78
2022/01/18 04:13:45;;;;;;;25.63;11.40;;;5.00;99.90;;;;;;5092268;28;20031;-77
2022/01/18 04:16:11;;;;;;;22.90;10.80;;;4.90;99.90;;;;;;5090517;28;20165;-77
2022/01/18 04:18:59;;;;;;;24.30;11.00;;;5.00;99.90;;;;;;5090322;28;20047;-77
2022/01/18 04:26:56;;;;;;;26.73;11.63;;;4.90;99.90;;;;;;5112515;28;20034;-78
2022/01/18 04:29:22;;;;;;;24.93;11.27;;;4.90;99.90;;;;;;5113851;28;20030;-77
2022/01/18 04:31:48;;;;;;;22.40;10.77;;;4.90;99.90;;;;;;5094090;28;20119;-77
2022/01/18 04:34:14;;;;;;;26.33;11.60;;;4.90;99.90;;;;;;5094632;28;20131;-77
2022/01/18 04:36:39;;;;;;;23.50;11.33;;;4.90;99.90;;;;;;5095632;28;20483;-77
2022/01/18 04:39:05;;;;;;;22.90;11.00;;;4.90;99.90;;;;;;5112890;28;20023;-78
2022/01/18 04:41:31;;;;;;;28.53;11.80;;;5.00;99.90;;;;;;5094814;28;20031;-77
2022/01/18 04:49:11;;;;;;;25.57;10.93;;;5.00;99.90;;;;;;5112403;28;20034;-78
2022/01/18 04:51:38;;;;;;;25.40;11.47;;;5.00;99.90;;;;;;5095350;28;20453;-78
2022/01/18 04:54:07;;;;;;;26.50;11.80;;;5.00;99.90;;;;;;5094761;28;20457;-77
2022/01/18 04:59:07;;;;;;;29.90;11.93;;;4.90;99.90;;;;;;5116252;28;20028;-78
2022/01/18 05:01:35;;;;;;;28.35;12.13;;;4.90;99.90;;;;;;5117180;28;20099;-78
2022/01/18 05:04:01;;;;;;;26.30;11.37;;;4.80;99.90;;;;;;5098465;28;20119;-77
2022/01/18 05:06:27;;;;;;;24.17;11.80;;;4.80;99.90;;;;;;5099038;28;20106;-78
2022/01/18 05:08:54;;;;;;;26.67;13.10;;;4.80;99.90;;;;;;5098544;28;20052;-78
2022/01/18 05:11:23;;;;;;;27.00;11.50;;;4.80;99.90;;;;;;5098815;28;20118;-76
2022/01/18 05:24:21;;;;;;;22.53;11.80;;;5.00;99.90;;;;;;5034010;28;20053;-77
2022/01/18 05:26:47;;;;;;;28.47;12.03;;;4.90;99.90;;;;;;5065549;28;20051;-77
2022/01/18 05:29:13;;;;;;;21.37;10.90;;;4.90;99.90;;;;;;5095488;28;20020;-77
2022/01/18 05:31:38;;;;;;;26.10;12.30;;;4.90;99.90;;;;;;5096436;28;20031;-77
2022/01/18 05:34:04;;;;;;;25.73;11.33;;;4.90;99.90;;;;;;5096057;28;20445;-77
2022/01/18 05:36:31;;;;;;;30.10;12.33;;;4.80;99.90;;;;;;5078158;28;20039;-77
2022/01/18 05:38:57;;;;;;;25.00;12.03;;;4.80;99.90;;;;;;5095818;28;20020;-77
2022/01/18 05:41:22;;;;;;;23.03;11.00;;;4.70;99.90;;;;;;5086135;28;20526;-78
2022/01/18 05:43:48;;;;;;;24.53;11.53;;;4.80;99.90;;;;;;5078511;28;20066;-78
2022/01/18 05:46:14;;;;;;;25.23;11.97;;;4.70;99.90;;;;;;5094629;28;20020;-78
2022/01/18 05:48:39;;;;;;;30.50;11.70;;;4.80;99.90;;;;;;5095490;28;20108;-77
2022/01/18 05:51:05;;;;;;;25.37;12.40;;;4.70;99.90;;;;;;5094280;28;20021;-77
2022/01/18 05:53:34;;;;;;;32.13;13.00;;;4.70;99.90;;;;;;5078095;28;20029;-77
2022/01/18 05:56:03;;;;;;;24.43;12.13;;;4.70;99.90;;;;;;5095092;28;20123;-79
2022/01/18 05:58:29;;;;;;;26.63;12.23;;;4.80;99.90;;;;;;5091572;28;20039;-78
2022/01/18 06:00:55;;;;;;;24.80;12.27;;;4.70;99.90;;;;;;5094454;28;20028;-78
2022/01/18 06:03:53;;;;;;;25.07;11.90;;;4.70;99.90;;;;;;5094736;28;20431;-77
2022/01/18 06:08:56;;;;;;;23.50;11.53;;;4.60;99.90;;;;;;5095296;28;20452;-78
2022/01/18 06:11:22;;;;;;;24.77;11.97;;;4.60;99.90;;;;;;5076505;28;20052;-76
2022/01/18 06:13:48;;;;;;;27.67;12.03;;;4.60;99.90;;;;;;5094606;28;20028;-78
2022/01/18 06:16:13;;;;;;;26.03;12.00;;;4.50;99.90;;;;;;5093383;28;20564;-77
2022/01/18 06:18:39;;;;;;;25.53;11.93;;;4.50;99.90;;;;;;5094627;28;20020;-77
2022/01/18 06:21:04;;;;;;;32.00;12.87;;;4.40;99.90;;;;;;5089501;28;20081;-79
2022/01/18 06:23:30;;;;;;;29.63;12.13;;;4.50;99.90;;;;;;5097536;28;20058;-80
2022/01/18 06:25:58;;;;;;;27.47;13.10;;;4.50;99.90;;;;;;5107594;28;20028;-81
2022/01/18 06:28:24;;;;;;;28.50;13.40;;;4.60;99.90;;;;;;5093574;28;20089;-79
2022/01/18 06:30:49;;;;;;;25.97;12.03;;;4.60;99.90;;;;;;5097847;28;20028;-79
2022/01/18 06:33:15;;;;;;;22.03;11.33;;;4.60;99.90;;;;;;5097589;28;20031;-82
2022/01/18 06:35:41;;;;;;;24.70;11.40;;;4.60;99.90;;;;;;5116508;28;20036;-82
2022/01/18 06:38:08;;;;;;;24.40;11.70;;;4.60;99.90;;;;;;5097329;28;20036;-82
2022/01/18 06:40:34;;;;;;;23.20;11.10;;;4.50;99.90;;;;;;5097375;28;20054;-83
2022/01/18 06:42:59;;;;;;;23.87;11.73;;;4.50;99.90;;;;;;5096744;28;20078;-82
2022/01/18 06:45:25;;;;;;;27.70;12.67;;;4.50;99.90;;;;;;5090888;28;20178;-81
2022/01/18 06:47:51;;;;;;;25.60;11.93;;;4.50;99.90;;;;;;5115156;28;20036;-81
2022/01/18 06:50:16;;;;;;;29.67;13.33;;;4.50;99.90;;;;;;5097633;28;20045;-82
2022/01/18 06:52:42;;;;;;;32.03;12.83;;;4.50;99.90;;;;;;5097617;28;20023;-83
2022/01/18 06:55:12;;;;;;;25.23;11.83;;;4.60;99.90;;;;;;5097254;28;20030;-82
2022/01/18 06:57:38;;;;;;;26.03;12.23;;;4.60;99.90;;;;;;5084787;28;20034;-82
2022/01/18 07:00:05;;;;;;;27.83;12.63;;;4.50;99.90;;;;;;5115172;28;20023;-82
2022/01/18 07:02:31;;;;;;;25.20;11.80;;;4.50;99.90;;;;;;5097711;28;20035;-81
2022/01/18 07:04:56;;;;;;;26.10;12.20;;;4.60;99.90;;;;;;5115309;28;20036;-81
2022/01/18 07:07:23;;;;;;;23.67;11.93;;;4.50;99.90;;;;;;5097656;28;20050;-81
2022/01/18 07:09:49;;;;;;;29.60;12.13;;;4.50;99.90;;;;;;5115839;28;20376;-82
2022/01/18 07:12:15;;;;;;;24.40;11.47;;;4.50;99.90;;;;;;5097471;28;20180;-81
2022/01/18 07:14:41;;;;;;;21.63;11.40;;;4.50;99.90;;;;;;5097183;28;20096;-82
2022/01/18 07:17:07;;;;;;;24.50;11.67;;;4.40;99.90;;;;;;5096710;28;20457;-82
2022/01/18 07:19:33;;;;;;;26.07;11.90;;;4.40;99.90;;;;;;5115482;28;20111;-82
2022/01/18 07:21:59;;;;;;;24.77;11.37;;;4.40;99.90;;;;;;5114652;28;20078;-82
2022/01/18 07:24:37;;;;;;;28.47;12.80;;;4.40;99.90;;;;;;5096933;28;20094;-82
2022/01/18 07:27:05;;;;;;;26.13;11.87;;;4.40;99.90;;;;;;5100967;28;20051;-81
2022/01/18 07:29:31;;;;;;;26.17;12.40;;;4.40;99.90;;;;;;5097139;28;20077;-82
2022/01/18 07:31:57;;;;;;;23.53;12.17;;;4.50;99.90;;;;;;5096458;28;20035;-82
2022/01/18 07:34:22;;;;;;;30.40;13.57;;;4.50;99.90;;;;;;5114856;28;20074;-81
2022/01/18 07:36:48;;;;;;;28.17;13.60;;;4.50;99.90;;;;;;5096984;28;20031;-82
2022/01/18 07:39:14;;;;;;;26.07;12.60;;;4.50;99.90;;;;;;5114362;28;20031;-83
2022/01/18 07:41:39;;;;;;;26.17;13.03;;;4.50;99.90;;;;;;5114397;28;20019;-83
2022/01/18 07:44:05;;;;;;;23.37;12.13;;;4.50;99.90;;;;;;5096255;28;20503;-83
2022/01/18 07:46:31;;;;;;;31.20;13.70;;;4.50;99.90;;;;;;5096728;28;20396;-82
2022/01/18 07:48:57;;;;;;;25.50;11.60;;;4.60;99.90;;;;;;5096248;28;20028;-82
2022/01/18 07:51:22;;;;;;;25.57;12.33;;;4.60;99.90;;;;;;5096738;28;20053;-83
2022/01/18 07:53:48;;;;;;;32.00;13.57;;;4.60;99.90;;;;;;5096495;28;20110;-82
2022/01/18 07:56:14;;;;;;;30.27;13.90;;;4.60;99.90;;;;;;5089390;28;20475;-82
2022/01/18 07:58:40;;;;;;;26.30;12.83;;;4.60;99.90;;;;;;5096265;28;20031;-83
2022/01/18 08:01:06;;;;;;;28.77;12.47;;;4.60;99.90;;;;;;5095610;28;20448;-83
2022/01/18 08:03:33;;;;;;;29.03;13.27;;;4.60;99.90;;;;;;5096554;28;20045;-82
2022/01/18 08:05:59;;;;;;;25.67;12.97;;;4.70;99.90;;;;;;5094902;28;20043;-82
2022/01/18 08:08:26;;;;;;;28.30;13.40;;;4.70;99.90;;;;;;5096335;28;20033;-82
2022/01/18 08:10:52;;;;;;;28.03;13.23;;;4.70;99.90;;;;;;5113822;28;20016;-81
2022/01/18 08:13:19;;;;;;;24.67;12.17;;;4.70;99.90;;;;;;5096628;28;20023;-81
2022/01/18 08:15:56;;;;;;;27.57;12.53;;;4.80;99.90;;;;;;5114254;28;20033;-81
2022/01/18 08:18:22;;;;;;;27.07;12.00;;;4.80;99.90;;;;;;5095927;28;20023;-81
2022/01/18 08:20:47;;;;;;;23.33;12.03;;;4.80;99.90;;;;;;5095914;28;20161;-81
2022/01/18 08:23:13;;;;;;;26.07;12.13;;;4.80;99.90;;;;;;5095252;28;20020;-81
2022/01/18 08:25:39;;;;;;;26.60;11.77;;;4.80;99.90;;;;;;5091626;28;20078;-82
2022/01/18 08:28:05;;;;;;;25.03;12.10;;;4.90;99.90;;;;;;5086422;28;20059;-81
2022/01/18 08:30:34;;;;;;;22.53;11.37;;;4.90;99.90;;;;;;5096104;28;20050;-82
2022/01/18 08:32:59;;;;;;;26.10;13.03;;;4.90;99.90;;;;;;5094786;28;20384;-82
2022/01/18 08:35:29;;;;;;;29.30;12.70;;;4.90;99.90;;;;;;5095496;28;20093;-82
2022/01/18 08:37:57;;;;;;;27.33;12.47;;;5.00;99.90;;;;;;5095308;28;20023;-82
2022/01/18 08:40:26;;;;;;;32.87;13.40;;;5.00;99.90;;;;;;5113756;28;20097;-80
2022/01/18 08:42:54;;;;;;;28.97;12.87;;;5.00;99.90;;;;;;5095074;28;20115;-80
2022/01/18 08:45:20;;;;;;;27.63;13.17;;;5.00;99.90;;;;;;5095780;28;20032;-80
2022/01/18 08:47:46;;;;;;;28.20;12.63;;;5.10;99.90;;;;;;5095639;28;20084;-80
2022/01/18 08:50:12;;;;;;;29.13;13.13;;;5.10;99.90;;;;;;5113164;28;20027;-80
2022/01/18 08:52:39;;;;;;;25.23;13.10;;;5.10;99.90;;;;;;5095774;28;20131;-81
2022/01/18 08:55:05;;;;;;;26.87;13.13;;;5.20;99.90;;;;;;5094990;28;20150;-80
2022/01/18 08:57:30;;;;;;;33.17;14.63;;;5.20;99.90;;;;;;5095316;28;20100;-81
2022/01/18 08:59:56;;;;;;;30.17;12.77;;;5.30;99.90;;;;;;5095243;28;20389;-80
2022/01/18 09:02:22;;;;;;;28.63;13.43;;;5.30;99.90;;;;;;5095527;28;20035;-81
2022/01/18 09:04:48;;;;;;;30.63;13.63;;;5.30;99.90;;;;;;5085185;28;20035;-79
2022/01/18 09:07:16;;;;;;;29.13;13.37;;;5.30;99.90;;;;;;5094684;28;20028;-79
2022/01/18 09:09:42;;;;;;;28.80;13.13;;;5.40;99.90;;;;;;5094548;28;20024;-79
2022/01/18 09:12:13;;;;;;;28.87;13.67;;;5.40;99.90;;;;;;5094806;28;20032;-79
2022/01/18 09:14:39;;;;;;;29.53;12.63;;;5.50;99.90;;;;;;5090970;28;20081;-79
2022/01/18 09:17:05;;;;;;;27.23;12.50;;;5.50;99.90;;;;;;5112277;28;20032;-79
2022/01/18 09:19:31;;;;;;;29.40;12.67;;;5.60;99.90;;;;;;5095465;28;20023;-79
2022/01/18 09:21:58;;;;;;;27.90;12.83;;;5.60;99.90;;;;;;5094529;28;20023;-78
2022/01/18 09:24:24;;;;;;;32.20;13.03;;;5.70;99.90;;;;;;5091252;28;20076;-79
2022/01/18 09:26:50;;;;;;;25.60;12.70;;;5.80;99.90;;;;;;5078169;28;20056;-79
2022/01/18 09:29:16;;;;;;;27.17;13.23;;;5.70;99.90;;;;;;5091195;28;20028;-79
2022/01/18 09:31:41;;;;;;;25.07;12.40;;;5.80;99.90;;;;;;5091596;28;20035;-78
2022/01/18 09:34:07;;;;;;;27.80;12.23;;;5.80;99.90;;;;;;5091057;28;20384;-79
2022/01/18 09:36:36;;;;;;;31.10;13.03;;;5.80;99.90;;;;;;5091469;28;20028;-78
2022/01/18 09:39:06;;;;;;;24.23;12.53;;;5.90;99.90;;;;;;5091789;28;20039;-79
2022/01/18 09:41:38;;;;;;;27.60;11.23;;;5.90;99.90;;;;;;5091645;28;20031;-79
2022/01/18 09:44:04;;;;;;;29.95;12.02;;;6.00;99.90;;;;;;5091200;28;20038;-79
2022/01/18 09:46:29;;;;;;;28.70;12.60;;;6.00;99.90;;;;;;5095401;28;20488;-79
2022/01/18 09:48:56;;;;;;;26.03;11.40;;;6.00;99.90;;;;;;5094875;28;20028;-79
2022/01/18 09:51:22;;;;;;;30.47;12.87;;;5.90;99.90;;;;;;5095228;28;20118;-79
2022/01/18 09:53:48;;;;;;;27.90;12.63;;;5.90;99.90;;;;;;5094734;28;20024;-79
2022/01/18 09:56:16;;;;;;;26.17;11.90;;;5.90;99.90;;;;;;5085395;28;20028;-79
2022/01/18 09:58:43;;;;;;;29.20;12.73;;;6.00;99.90;;;;;;5091203;28;20483;-79
2022/01/18 10:01:09;;;;;;;29.57;13.63;;;6.00;99.90;;;;;;5094431;28;20024;-79
2022/01/18 10:03:37;;;;;;;28.20;13.30;;;6.10;99.90;;;;;;5095111;28;20031;-79
2022/01/18 10:06:03;;;;;;;29.40;13.30;;;6.20;99.90;;;;;;5094232;28;20040;-79
2022/01/18 10:08:29;;;;;;;24.83;12.13;;;6.20;99.90;;;;;;5095991;28;20081;-79
2022/01/18 10:11:02;;;;;;;30.20;12.23;;;6.20;99.90;;;;;;5094179;28;20024;-79
2022/01/18 10:13:30;;;;;;;28.97;12.10;;;6.30;99.90;;;;;;5094138;28;20476;-79
2022/01/18 10:16:11;;;;;;;26.23;12.20;;;6.30;99.90;;;;;;5094426;28;20028;-79
2022/01/18 10:18:46;;;;;;;23.37;10.33;;;6.30;99.90;;;;;;5094897;28;20028;-79
2022/01/18 10:21:15;;;;;;;23.00;10.43;;;6.40;99.90;;;;;;5077387;28;20203;-79
2022/01/18 10:23:48;;;;;;;22.63;9.43;;;6.50;99.90;;;;;;5094149;28;20052;-79
2022/01/18 10:26:25;;;;;;;21.40;9.70;;;6.50;99.90;;;;;;5094543;28;20028;-80
2022/01/18 10:29:03;;;;;;;22.47;9.87;;;6.50;99.90;;;;;;5094548;28;20028;-80
2022/01/18 10:31:55;;;;;;;22.50;9.57;;;6.50;99.90;;;;;;5094491;28;20028;-80
2022/01/18 10:37:14;;;;;;;21.27;9.80;;;6.70;99.90;;;;;;5095008;28;20473;-79
2022/01/18 10:39:54;;;;;;;19.27;9.73;;;6.70;99.90;;;;;;5094337;28;20461;-80
2022/01/18 10:42:28;;;;;;;20.93;8.90;;;6.80;99.90;;;;;;5094247;28;20028;-80
2022/01/18 10:45:02;;;;;;;21.37;8.73;;;6.80;99.90;;;;;;5093779;28;20056;-79
2022/01/18 10:47:28;;;;;;;21.57;9.77;;;6.80;99.90;;;;;;5094402;28;20078;-80
2022/01/18 10:49:53;;;;;;;20.27;9.20;;;6.90;99.90;;;;;;5093564;28;20472;-81
2022/01/18 10:52:26;;;;;;;21.33;9.00;;;6.90;99.90;;;;;;5094247;28;20031;-81
2022/01/18 10:54:57;;;;;;;23.13;9.53;;;6.90;99.90;;;;;;5093651;28;20054;-81
2022/01/18 10:57:29;;;;;;;21.20;9.27;;;6.90;99.90;;;;;;5093627;28;20027;-81
2022/01/18 11:00:04;;;;;;;16.67;8.00;;;7.10;99.90;;;;;;5093629;28;20429;-81
2022/01/18 11:02:51;;;;;;;18.97;8.03;;;7.10;99.90;;;;;;5094104;28;20082;-78
2022/01/18 11:05:26;;;;;;;20.53;8.00;;;7.20;99.90;;;;;;5079572;28;20036;-81
2022/01/18 11:07:54;;;;;;;19.75;8.10;;;7.10;99.90;;;;;;5093362;28;20032;-79
2022/01/18 11:10:25;;;;;;;17.23;8.10;;;7.10;99.90;;;;;;5095028;28;20028;-79
2022/01/18 11:13:10;;;;;;;20.77;8.65;;;7.10;99.90;;;;;;5093846;28;20032;-79
2022/01/18 11:15:39;;;;;;;19.73;9.13;;;7.10;99.90;;;;;;5093638;28;20032;-79
2022/01/18 11:18:14;;;;;;;17.37;8.77;;;7.20;99.90;;;;;;5093234;28;20024;-80
2022/01/18 11:20:48;;;;;;;18.93;8.43;;;7.30;99.90;;;;;;5093479;28;20024;-80
2022/01/18 11:23:15;;;;;;;17.42;8.20;;;7.40;99.90;;;;;;5094322;28;20020;-79
2022/01/18 11:25:41;;;;;;;20.03;8.43;;;7.40;99.90;;;;;;5096757;28;20168;-80
2022/01/18 11:28:09;;;;;;;18.98;8.45;;;7.50;99.90;;;;;;5096147;28;20028;-80
2022/01/18 11:30:39;;;;;;;14.55;6.85;;;7.50;99.90;;;;;;5115052;28;20024;-80
2022/01/18 11:33:10;;;;;;;16.30;7.38;;;7.60;99.90;;;;;;5113925;28;20032;-80
2022/01/18 11:35:44;;;;;;;12.68;6.45;;;7.70;99.90;;;;;;5114590;28;20039;-80
2022/01/18 11:38:16;;;;;;;16.13;6.75;;;7.80;99.90;;;;;;5106804;28;20476;-77
2022/01/18 11:40:48;;;;;;;15.75;5.72;;;7.80;99.90;;;;;;5096173;28;20019;-77
2022/01/18 11:43:15;;;;;;;17.40;7.18;;;7.80;99.90;;;;;;5079282;28;20027;-76
2022/01/18 11:45:43;;;;;;;16.92;5.75;;;7.90;99.90;;;;;;5095730;28;20034;-77
2022/01/18 11:48:20;;;;;;;10.43;5.03;;;7.90;99.90;;;;;;5113372;28;20032;-76
2022/01/18 11:51:00;;;;;;;10.38;4.80;;;8.00;99.90;;;;;;5113989;28;20099;-76
2022/01/18 11:53:42;;;;;;;11.93;5.03;;;8.00;99.90;;;;;;5095856;28;20020;-76
2022/01/18 11:56:13;;;;;;;9.40;4.30;;;8.00;99.90;;;;;;5104728;28;20028;-77
2022/01/18 11:58:39;;;;;;;11.15;5.10;;;8.00;99.90;;;;;;5109263;28;20055;-76
2022/01/18 12:01:05;;;;;;;10.82;4.53;;;8.00;99.90;;;;;;5094416;28;20124;-76
2022/01/18 12:03:52;;;;;;;9.85;3.88;;;7.90;99.90;;;;;;5095650;28;20050;-76
2022/01/18 12:06:45;;;;;;;6.80;3.03;;;7.90;99.90;;;;;;5094829;28;20039;-77
2022/01/18 12:09:37;;;;;;;9.50;3.72;;;7.90;99.90;;;;;;5078343;28;20119;-76
2022/01/18 12:12:04;;;;;;;;;;;7.90;99.90;;;;;;5094721;28;20057;-79
2022/01/18 12:14:33;;;;;;;8.15;3.08;;;7.90;99.90;;;;;;5095477;28;19908;-79
2022/01/18 12:17:15;;;;;;;6.18;2.60;;;8.00;99.90;;;;;;5094748;28;20031;-77
2022/01/18 12:19:46;;;;;;;9.57;3.30;;;8.10;99.90;;;;;;5095400;28;20472;-76
2022/01/18 12:22:12;;;;;;;10.25;3.20;;;8.00;99.90;;;;;;5095067;28;20176;-77
2022/01/18 12:24:41;;;;;;;9.13;3.63;;;8.10;99.90;;;;;;5095189;28;20089;-77
2022/01/18 12:27:31;;;;;;;9.15;3.83;;;8.10;99.90;;;;;;5099260;28;20040;-75
2022/01/18 12:30:39;;;;;;;6.70;3.38;;;8.10;99.90;;;;;;5094591;28;20094;-79
2022/01/18 12:33:18;;;;;;;6.47;3.08;;;8.10;99.90;;;;;;5109318;28;21052;-75
2022/01/18 12:35:45;;;;;;;9.18;3.15;;;8.10;99.90;;;;;;5093841;28;20028;-75
2022/01/18 12:38:21;;;;;;;6.40;3.15;;;8.10;99.90;;;;;;5093689;28;20126;-75
2022/01/18 12:40:47;;;;;;;7.28;3.13;;;8.10;99.90;;;;;;5094922;28;20027;-76
2022/01/18 12:45:42;;;;;;;5.43;2.63;;;8.00;99.90;;;;;;5113399;28;20064;-76
2022/01/18 12:48:10;;;;;;;6.78;3.22;;;8.00;99.90;;;;;;5094410;28;20027;-76
2022/01/18 12:50:51;;;;;;;7.70;3.10;;;8.00;99.90;;;;;;5094510;28;20388;-76
2022/01/18 12:53:22;;;;;;;8.60;3.00;;;8.00;99.90;;;;;;5094670;28;20052;-76
2022/01/18 12:56:02;;;;;;;7.30;3.30;;;8.00;99.90;;;;;;5074417;28;20024;-76
2022/01/18 12:58:34;;;;;;;8.77;3.17;;;7.90;99.90;;;;;;5087788;28;20557;-77
2022/01/18 13:01:14;;;;;;;6.07;3.22;;;7.90;99.90;;;;;;5094822;28;20378;-77
2022/01/18 13:03:52;;;;;;;6.17;2.73;;;7.90;99.90;;;;;;5095277;28;20042;-77
2022/01/18 13:06:22;;;;;;;7.20;3.03;;;7.90;99.90;;;;;;5087541;28;20040;-76
2022/01/18 13:08:53;;;;;;;8.40;2.92;;;7.90;99.90;;;;;;5094427;28;20032;-78
2022/01/18 13:11:25;;;;;;;5.50;2.97;;;7.90;99.90;;;;;;5097733;28;20027;-79
2022/01/18 13:14:00;;;;;;;5.45;3.00;;;7.80;99.90;;;;;;5112893;28;20036;-79
2022/01/18 13:27:12;;;;;;;4.85;1.45;;;7.70;99.90;;;;;;5114248;28;20067;-78
2022/01/18 13:29:38;;;;;;;2.97;1.25;;;7.70;99.90;;;;;;5098510;28;20475;-76
2022/01/18 13:32:16;;;;;;;4.13;1.55;;;7.70;99.90;;;;;;5098927;28;20020;-75
2022/01/18 13:34:45;;;;;;;2.95;1.55;;;7.70;99.90;;;;;;5097547;28;20372;-75
2022/01/18 13:37:18;;;;;;;4.68;1.65;;;7.70;99.90;;;;;;5096903;28;20126;-76
2022/01/18 13:39:49;;;;;;;2.35;1.40;;;7.60;99.90;;;;;;5097683;28;20529;-76
2022/01/18 13:42:27;;;;;;;3.70;1.33;;;7.60;99.90;;;;;;5100792;28;20119;-74
2022/01/18 13:45:11;;;;;;;3.07;1.30;;;7.50;99.90;;;;;;5098274;28;20016;-76
2022/01/18 13:47:58;;;;;;;10.90;2.72;;;7.50;99.90;;;;;;5108765;28;20026;-77
2022/01/18 13:50:37;;;;;;;9.90;3.28;;;7.50;99.90;;;;;;5096168;28;20030;-76
2022/01/18 13:53:14;;;;;;;6.07;1.88;;;7.40;99.90;;;;;;5096631;28;20381;-76
2022/01/18 13:55:59;;;;;;;10.15;2.90;;;7.40;99.90;;;;;;5096240;28;20024;-76
2022/01/18 13:58:32;;;;;;;12.15;2.88;;;7.40;99.90;;;;;;5096905;28;20062;-77
2022/01/18 14:01:24;;;;;;;7.07;1.93;;;7.40;99.90;;;;;;5095654;28;20028;-76
2022/01/18 14:03:53;;;;;;;2.70;1.30;;;7.40;99.90;;;;;;5098067;28;20047;-77
2022/01/18 14:06:20;;;;;;;1.35;1.02;;;7.40;99.90;;;;;;5098106;28;20035;-78
2022/01/18 14:08:54;;;;;;;2.63;1.00;;;7.40;99.90;;;;;;5116031;28;20036;-77
2022/01/18 14:11:22;;;;;;;3.73;0.90;;;7.40;99.90;;;;;;5082752;28;20030;-77
2022/01/18 14:13:48;;;;;;;2.88;1.00;;;7.40;99.90;;;;;;5098316;28;20058;-77
2022/01/18 14:16:20;;;;;;;2.85;1.05;;;7.40;99.90;;;;;;5097451;28;20033;-77
2022/01/18 14:18:56;;;;;;;2.13;1.10;;;7.40;99.90;;;;;;5098544;28;20019;-78
2022/01/18 14:21:27;;;;;;;3.35;1.23;;;7.40;99.90;;;;;;5098166;28;20080;-79
2022/01/18 14:24:13;;;;;;;1.50;0.97;;;7.40;99.90;;;;;;5096885;28;20054;-76
2022/01/18 14:26:48;;;;;;;5.88;1.90;;;7.40;99.90;;;;;;5084671;28;20273;-76
2022/01/18 14:29:15;;;;;;;4.60;1.50;;;7.40;99.90;;;;;;5081260;28;20445;-76